Time;durP1;ratioP1;P1;durP2;ratioP2;P2;SDS_P1;SDS_P2;PMS_P1;PMS_P2;Temp;Humidity;BMP_temperature;BMP_pressure;BME280_temperature;BME280_humidity;BME280_pressure;Samples;Min_cycle;Max_cycle;Signal;HPM_P1;HPM_P2
2022/01/05 00:04:19;;;;;;;0.20;0.20;;;5.80;99.90;;;5.56;100.00;99005.00;4959167;28;20209;-79
2022/01/05 00:06:47;;;;;;;0.20;0.20;;;5.70;99.90;;;5.57;100.00;99005.88;4942007;29;20229;-78
2022/01/05 00:09:15;;;;;;;0.20;0.20;;;5.70;99.90;;;5.57;100.00;99012.00;4920614;29;20222;-78
2022/01/05 00:11:43;;;;;;;0.10;0.10;;;5.70;99.90;;;5.56;100.00;99011.97;4933117;29;20238;-79
2022/01/05 00:14:11;;;;;;;0.20;0.20;;;5.70;99.90;;;5.55;100.00;99018.09;4911480;23;20627;-79
2022/01/05 00:16:39;;;;;;;0.98;0.98;;;5.70;99.90;;;5.55;100.00;99018.09;4945686;28;20214;-83
2022/01/05 00:19:07;;;;;;;0.10;0.10;;;5.70;99.90;;;5.55;100.00;99020.72;4933559;28;20214;-78
2022/01/05 00:21:35;;;;;;;0.10;0.10;;;5.70;99.90;;;5.55;100.00;99015.47;4934914;28;20209;-78
2022/01/05 00:24:04;;;;;;;0.20;0.20;;;5.70;99.90;;;5.60;100.00;99019.00;4922976;28;20230;-79
2022/01/05 00:26:32;;;;;;;0.20;0.20;;;;;;;5.62;100.00;99027.75;4927630;28;20209;-78
2022/01/05 00:29:00;;;;;;;0.20;0.20;;;5.70;99.90;;;5.60;100.00;99026.88;4899428;28;20237;-78
2022/01/05 00:31:29;;;;;;;0.20;0.20;;;;;;;5.57;100.00;99016.38;4898667;28;20213;-78
2022/01/05 00:33:57;;;;;;;0.20;0.20;;;5.80;99.90;;;5.54;100.00;99011.97;4926626;28;20240;-78
2022/01/05 00:36:25;;;;;;;0.20;0.20;;;5.70;99.90;;;5.53;100.00;99001.47;4927432;28;20218;-80
2022/01/05 00:38:52;;;;;;;0.20;0.20;;;5.70;99.90;;;5.50;100.00;99001.47;4897382;28;20657;-80
2022/01/05 00:41:21;;;;;;;0.20;0.20;;;5.70;99.90;;;5.48;100.00;98990.97;4932618;28;20236;-79
2022/01/05 00:43:48;;;;;;;0.10;0.10;;;5.70;99.90;;;5.51;100.00;98990.09;4930983;28;20233;-79
2022/01/05 00:46:16;;;;;;;0.10;0.10;;;5.70;99.90;;;5.50;100.00;98996.22;4930856;28;20209;-79
2022/01/05 00:48:45;;;;;;;0.10;0.10;;;5.70;99.90;;;5.55;100.00;99002.38;4914664;28;20213;-79
2022/01/05 00:51:15;;;;;;;0.20;0.20;;;5.70;99.90;;;5.56;100.00;99001.50;4914759;28;20656;-79
2022/01/05 00:53:43;;;;;;;0.20;0.20;;;5.70;99.90;;;5.57;100.00;98993.63;4911967;28;20236;-79
2022/01/05 00:56:11;;;;;;;0.10;0.10;;;;;;;5.55;100.00;98991.88;4931129;28;20213;-79
2022/01/05 00:58:41;;;;;;;0.20;0.20;;;5.70;99.90;;;5.56;100.00;98996.25;4911488;28;20217;-79
2022/01/05 01:01:09;;;;;;;0.20;0.20;;;;;;;5.56;100.00;98981.41;4931125;28;20217;-79
2022/01/05 01:03:39;;;;;;;0.10;0.10;;;5.70;99.90;;;5.53;100.00;98975.25;4898185;28;20238;-79
2022/01/05 01:06:07;;;;;;;0.13;0.13;;;5.70;99.90;;;5.56;100.00;98985.75;4934717;28;20209;-79
2022/01/05 01:08:35;;;;;;;0.20;0.20;;;5.70;99.90;;;5.55;100.00;98984.88;4937664;28;20692;-79
2022/01/05 01:11:03;;;;;;;0.13;0.13;;;5.70;99.90;;;5.52;100.00;99000.59;4932389;28;20233;-79
2022/01/05 01:13:31;;;;;;;0.10;0.10;;;5.70;99.90;;;5.54;100.00;98996.25;4929766;28;20245;-79
2022/01/05 01:15:59;;;;;;;0.10;0.10;;;5.70;99.90;;;5.56;100.00;98998.88;4914956;28;20213;-79
2022/01/05 01:18:27;;;;;;;0.10;0.10;;;5.70;99.90;;;5.57;100.00;99000.63;4928720;28;20210;-79
2022/01/05 01:20:55;;;;;;;0.15;0.15;;;5.70;99.90;;;5.56;100.00;98999.75;4929560;28;20220;-79
2022/01/05 01:23:24;;;;;;;0.20;0.20;;;5.70;99.90;;;5.55;100.00;98997.13;4941750;28;20230;-80
2022/01/05 01:25:52;;;;;;;0.20;0.20;;;5.70;99.90;;;5.56;100.00;99017.22;4930308;28;20217;-78
2022/01/05 01:28:23;;;;;;;0.20;0.20;;;5.70;99.90;;;5.54;100.00;99014.59;4948704;28;20315;-78
2022/01/05 01:30:52;;;;;;;0.20;0.20;;;;;;;5.52;100.00;98990.13;4914955;28;20229;-79
2022/01/05 01:33:20;;;;;;;0.13;0.13;;;5.70;99.90;;;5.53;100.00;99012.84;4907063;28;20226;-79
2022/01/05 01:35:48;;;;;;;0.20;0.20;;;5.70;99.90;;;5.55;100.00;99007.59;4937238;28;20680;-79
2022/01/05 01:38:17;;;;;;;0.13;0.13;;;5.70;99.90;;;5.54;100.00;98996.25;4935087;28;20222;-79
2022/01/05 01:40:45;;;;;;;0.20;0.20;;;5.70;99.90;;;5.63;100.00;99019.03;4921236;29;20206;-79
2022/01/05 01:43:13;;;;;;;0.20;0.20;;;5.70;99.90;;;5.69;100.00;99019.06;4922940;28;20237;-79
2022/01/05 01:45:41;;;;;;;0.20;0.20;;;5.70;99.90;;;5.69;100.00;99014.69;4938165;28;20224;-78
2022/01/05 01:48:09;;;;;;;0.20;0.20;;;5.80;99.90;;;5.68;100.00;99027.78;4920907;28;20205;-78
2022/01/05 01:50:37;;;;;;;0.20;0.20;;;5.80;99.90;;;5.67;100.00;99020.78;4914895;28;20233;-80
2022/01/05 01:53:05;;;;;;;0.20;0.20;;;;;;;5.73;100.00;99026.06;4919245;28;20604;-83
2022/01/05 01:55:36;;;;;;;0.10;0.10;;;5.80;99.90;;;5.74;100.00;99020.84;4934457;28;20300;-78
2022/01/05 01:58:06;;;;;;;0.20;0.20;;;5.80;99.90;;;5.78;100.00;99012.13;4923033;28;20217;-78
2022/01/05 02:00:35;;;;;;;0.20;0.20;;;5.80;99.90;;;5.87;100.00;99008.66;4945044;28;20202;-80
2022/01/05 02:03:03;;;;;;;0.20;0.20;;;5.90;99.90;;;5.96;100.00;99010.50;4902689;28;20614;-78
2022/01/05 02:05:32;;;;;;;0.17;0.17;;;5.90;99.90;;;6.12;100.00;99016.69;4936682;28;20209;-79
2022/01/05 02:08:01;;;;;;;0.20;0.20;;;6.00;99.90;;;6.07;100.00;98991.28;4921804;28;20205;-78
2022/01/05 02:10:30;;;;;;;0.30;0.30;;;6.10;99.90;;;6.03;100.00;98968.53;4923378;29;20240;-78
2022/01/05 02:12:59;;;;;;;0.20;0.20;;;6.10;99.90;;;6.08;100.00;98968.56;4942602;28;20236;-79
2022/01/05 02:15:27;;;;;;;0.25;0.25;;;6.10;99.90;;;6.04;100.00;98962.41;4917685;28;20248;-82
2022/01/05 02:20:32;;;;;;;0.20;0.20;;;6.10;99.90;;;6.06;100.00;98937.06;4924156;29;20209;-79
2022/01/05 02:23:00;;;;;;;0.30;0.30;;;6.10;99.90;;;6.04;100.00;98937.94;4930631;28;20233;-77
2022/01/05 02:25:28;;;;;;;0.20;0.20;;;6.10;99.90;;;6.01;100.00;98927.41;4943586;28;20217;-79
2022/01/05 02:27:58;;;;;;;0.20;0.20;;;6.10;99.90;;;5.93;100.00;98919.53;4920464;28;20209;-78
2022/01/05 02:30:30;;;;;;;0.20;0.20;;;6.10;99.90;;;5.92;100.00;98904.66;4934396;29;20221;-79
2022/01/05 02:33:01;;;;;;;0.20;0.20;;;6.00;99.90;;;5.85;100.00;98889.72;4917124;29;20226;-78
2022/01/05 02:35:31;;;;;;;0.20;0.20;;;6.00;99.90;;;5.73;100.00;98887.06;4915851;29;20206;-79
2022/01/05 02:38:02;;;;;;;0.20;0.20;;;6.00;99.90;;;5.65;100.00;98887.03;4918995;28;20703;-80
2022/01/05 02:40:33;;;;;;;0.20;0.20;;;5.90;99.90;;;5.67;100.00;98905.41;4908780;29;20685;-80
2022/01/05 02:43:01;;;;;;;0.20;0.20;;;5.90;99.90;;;5.61;100.00;98897.50;4910068;29;20234;-79
2022/01/05 02:45:29;;;;;;;0.20;0.20;;;5.80;99.90;;;5.57;100.00;98914.97;4919158;28;20201;-80
2022/01/05 02:47:57;;;;;;;0.20;0.20;;;5.80;99.90;;;5.51;100.00;98916.69;4925616;29;20282;-79
2022/01/05 02:50:24;;;;;;;0.20;0.20;;;5.80;99.90;;;5.47;100.00;98923.66;4940844;29;20221;-78
2022/01/05 02:52:53;;;;;;;0.20;0.20;;;5.80;99.90;;;5.49;100.00;98937.66;4939030;28;20273;-79
2022/01/05 02:55:21;;;;;;;0.30;0.30;;;5.70;99.90;;;5.58;100.00;98963.06;4939911;29;20202;-79
2022/01/05 02:57:49;;;;;;;0.20;0.20;;;5.70;99.90;;;5.62;100.00;98960.44;4928590;29;20233;-82
2022/01/05 03:00:17;;;;;;;0.20;0.20;;;5.70;99.90;;;5.57;100.00;98949.06;4927760;28;20214;-78
2022/01/05 03:02:45;;;;;;;0.20;0.20;;;5.70;99.90;;;5.63;100.00;98961.34;4909812;29;20234;-78
2022/01/05 03:05:13;;;;;;;0.20;0.20;;;5.80;99.90;;;5.82;100.00;98967.53;4913614;28;20202;-78
2022/01/05 03:07:41;;;;;;;0.22;0.22;;;5.80;99.90;;;6.03;100.00;98989.53;4932182;28;20216;-79
2022/01/05 03:10:11;;;;;;;0.13;0.13;;;5.80;99.90;;;6.03;100.00;99010.53;4951673;29;20238;-79
2022/01/05 03:12:42;;;;;;;0.20;0.20;;;5.90;99.90;;;6.06;100.00;99081.38;4922696;28;20615;-78
2022/01/05 03:15:10;;;;;;;0.20;0.20;;;6.00;99.90;;;3.91;100.00;98931.94;4917402;28;20205;-78
2022/01/05 03:17:39;;;;;;;0.20;0.20;;;5.20;99.90;;;3.61;100.00;98935.03;4911296;28;20221;-78
2022/01/05 03:20:10;;;;;;;0.20;0.20;;;4.60;99.90;;;3.68;100.00;98963.00;4934182;28;20212;-78
2022/01/05 03:22:38;;;;;;;0.20;0.20;;;4.30;99.90;;;3.61;100.00;98963.78;4909588;28;20593;-80
2022/01/05 03:25:15;;;;;;;0.10;0.10;;;4.10;99.90;;;3.60;100.00;98967.25;4901554;28;20217;-79
2022/01/05 03:27:49;;;;;;;0.10;0.10;;;4.00;99.90;;;3.62;100.00;98955.09;4916874;28;20423;-81
2022/01/05 03:30:25;;;;;;;0.20;0.20;;;4.00;99.90;;;3.54;100.00;98949.75;4923731;29;20237;-78
2022/01/05 03:35:35;;;;;;;0.10;0.10;;;3.90;99.90;;;3.60;100.00;98964.66;4933500;29;20206;-80
2022/01/05 03:38:04;;;;;;;0.20;0.20;;;3.90;99.90;;;3.63;100.00;98976.88;4918116;28;20205;-79
2022/01/05 03:40:34;;;;;;;0.20;0.20;;;3.90;99.90;;;3.57;100.00;98972.44;4905180;28;20220;-80
2022/01/05 03:43:04;;;;;;;0.10;0.10;;;3.90;99.90;;;3.54;100.00;98973.28;4900863;28;20319;-79
2022/01/05 03:45:35;;;;;;;0.20;0.20;;;3.90;99.90;;;3.67;100.00;98995.22;4919680;28;20214;-79
2022/01/05 03:48:07;;;;;;;0.10;0.10;;;3.90;99.90;;;3.60;100.00;98990.78;4901780;28;20256;-80
2022/01/05 03:50:36;;;;;;;0.20;0.20;;;3.90;99.90;;;3.65;100.00;98998.69;4948221;28;20229;-79
2022/01/05 03:53:04;;;;;;;0.20;0.20;;;4.00;99.90;;;3.59;100.00;99009.94;4928068;28;20801;-80
2022/01/05 03:55:35;;;;;;;0.20;0.20;;;3.90;99.90;;;3.63;100.00;99010.84;4948922;28;20212;-79
2022/01/05 03:58:03;;;;;;;0.10;0.10;;;3.90;99.90;;;3.66;100.00;99006.56;4896911;28;20217;-78
2022/01/05 04:00:36;;;;;;;0.20;0.20;;;3.90;99.90;;;3.65;100.00;99009.16;4906242;28;20206;-78
2022/01/05 04:03:04;;;;;;;0.20;0.20;;;3.90;99.90;;;3.66;100.00;99017.00;4916862;28;20615;-79
2022/01/05 04:05:32;;;;;;;0.13;0.13;;;3.90;99.90;;;3.65;100.00;99023.09;4930025;28;20214;-79
2022/01/05 04:08:01;;;;;;;0.10;0.10;;;3.90;99.90;;;3.65;100.00;99023.09;4930497;28;20210;-79
2022/01/05 04:10:29;;;;;;;0.20;0.20;;;3.90;99.90;;;3.62;100.00;99023.03;4900101;28;20209;-81
2022/01/05 04:12:57;;;;;;;0.20;0.20;;;3.90;99.90;;;3.62;100.00;99019.56;4913791;28;20234;-81
2022/01/05 04:15:25;;;;;;;0.10;0.10;;;3.90;99.90;;;3.63;100.00;99043.09;4897769;28;20209;-79
2022/01/05 04:17:53;;;;;;;0.10;0.10;;;3.90;99.90;;;3.60;100.00;99035.22;4911273;28;20220;-79
2022/01/05 04:20:21;;;;;;;0.10;0.10;;;3.80;99.90;;;3.57;100.00;99050.84;4889060;28;20297;-81
2022/01/05 04:22:49;;;;;;;0.20;0.20;;;4.00;99.90;;;3.57;100.00;99049.97;4923954;28;20240;-81
2022/01/05 04:25:17;;;;;;;0.20;0.20;;;3.80;99.90;;;3.60;100.00;99060.47;4904916;28;20201;-81
2022/01/05 04:27:45;;;;;;;0.17;0.17;;;3.90;99.90;;;3.62;100.00;99075.31;4938958;28;20217;-80
2022/01/05 04:30:13;;;;;;;0.20;0.20;;;3.80;99.90;;;3.64;100.00;99083.19;4907274;28;20202;-79
2022/01/05 04:32:41;;;;;;;0.10;0.10;;;4.10;99.90;;;3.64;100.00;99091.03;4914328;28;20246;-78
2022/01/05 04:35:29;;;;;;;0.20;0.20;;;3.80;99.90;;;3.61;100.00;99091.00;4913009;29;20217;-79
2022/01/05 04:37:56;;;;;;;0.10;0.10;;;3.90;99.90;;;3.57;100.00;99104.88;4929444;29;20656;-79
2022/01/05 04:40:25;;;;;;;0.10;0.10;;;3.80;99.90;;;3.60;100.00;99115.38;4929412;28;20216;-79
2022/01/05 04:42:52;;;;;;;0.20;0.20;;;3.80;99.90;;;3.66;100.00;99131.16;4933879;28;20653;-79
2022/01/05 04:45:20;;;;;;;0.20;0.20;;;3.80;99.90;;;3.65;100.00;99124.16;4923811;28;20206;-79
2022/01/05 04:47:49;;;;;;;0.20;0.20;;;3.80;99.90;;;3.63;100.00;99131.97;4931530;29;20206;-79
2022/01/05 04:50:18;;;;;;;0.20;0.20;;;3.80;99.90;;;3.65;100.00;99139.84;4923806;29;20213;-79
2022/01/05 04:52:46;;;;;;;0.10;0.10;;;3.80;99.90;;;3.63;100.00;99144.16;4942001;28;20233;-79
2022/01/05 04:55:14;;;;;;;0.15;0.15;;;3.80;99.90;;;3.61;100.00;99143.25;4896049;28;20206;-79
2022/01/05 04:57:42;;;;;;;0.10;0.10;;;3.80;99.90;;;3.67;100.00;99145.97;4910423;28;20217;-79
2022/01/05 05:00:10;;;;;;;0.10;0.10;;;3.90;99.90;;;3.64;100.00;99146.81;4921031;29;20205;-79
2022/01/05 05:02:38;;;;;;;0.20;0.20;;;3.80;99.90;;;3.66;100.00;99142.47;4936128;29;20234;-79
2022/01/05 05:05:07;;;;;;;0.10;0.10;;;3.80;99.90;;;3.71;100.00;99146.06;4947473;29;20210;-79
2022/01/05 05:07:34;;;;;;;0.10;0.10;;;3.80;99.90;;;3.69;100.00;99137.31;4906766;29;20232;-80
2022/01/05 05:10:05;;;;;;;0.20;0.20;;;3.80;99.90;;;3.68;100.00;99122.47;4925277;28;20220;-79
2022/01/05 05:12:33;;;;;;;0.20;0.20;;;3.80;99.90;;;3.64;100.00;99138.97;4932316;28;20236;-79
2022/01/05 05:15:01;;;;;;;0.20;0.20;;;3.80;99.90;;;3.65;100.00;99153.78;4933477;28;20668;-81
2022/01/05 05:17:29;;;;;;;0.20;0.20;;;3.90;99.90;;;3.61;100.00;99148.50;4922576;28;20205;-79
2022/01/05 05:19:58;;;;;;;0.10;0.10;;;3.80;99.90;;;3.56;100.00;99165.84;4909635;28;20201;-79
2022/01/05 05:22:25;;;;;;;0.20;0.20;;;3.80;99.90;;;3.52;100.00;99173.63;4912476;29;20206;-79
2022/01/05 05:24:53;;;;;;;0.10;0.10;;;3.80;99.90;;;3.51;100.00;99168.38;4924811;28;20221;-79
2022/01/05 05:27:22;;;;;;;0.20;0.20;;;3.80;99.90;;;3.51;100.00;99178.81;4921197;29;20210;-81
2022/01/05 05:29:50;;;;;;;0.10;0.10;;;3.70;99.90;;;3.47;100.00;99198.81;4905570;28;20210;-80
2022/01/05 05:32:18;;;;;;;0.20;0.20;;;3.90;99.90;;;3.43;100.00;99211.78;4931542;28;20589;-81
2022/01/05 05:34:46;;;;;;;0.20;0.20;;;3.70;99.90;;;3.45;100.00;99216.19;4937750;29;20210;-81
2022/01/05 05:37:17;;;;;;;0.20;0.20;;;3.70;99.90;;;3.45;100.00;99220.53;4901833;28;20205;-81
2022/01/05 05:39:45;;;;;;;0.20;0.20;;;3.70;99.90;;;3.41;100.00;99239.63;4939694;28;20229;-81
2022/01/05 05:42:14;;;;;;;0.10;0.10;;;3.80;99.90;;;3.36;100.00;99242.16;4920114;28;20209;-81
2022/01/05 05:44:49;;;;;;;0.10;0.10;;;3.70;99.90;;;3.37;100.00;99256.09;4949755;28;20217;-82
2022/01/05 05:47:56;;;;;;;0.20;0.20;;;3.60;99.90;;;3.30;100.00;99249.88;4963011;28;20203;-80
2022/01/05 05:50:28;;;;;;;0.10;0.10;;;3.50;99.90;;;3.31;100.00;99235.97;4930903;28;20216;-81
2022/01/05 05:52:59;;;;;;;0.20;0.20;;;3.60;99.90;;;3.29;100.00;99245.50;4938193;29;20230;-80
2022/01/05 05:55:28;;;;;;;0.20;0.20;;;3.60;99.90;;;3.37;100.00;99243.91;4911285;28;20209;-80
2022/01/05 05:57:59;;;;;;;0.10;0.10;;;3.50;99.90;;;3.34;100.00;99237.75;4931717;28;20205;-79
2022/01/05 06:00:29;;;;;;;0.20;0.20;;;3.50;99.90;;;3.31;100.00;99238.56;4930579;28;20209;-82
2022/01/05 06:02:59;;;;;;;0.10;0.10;;;4.00;99.90;;;3.31;100.00;99224.63;4935195;28;20237;-80
2022/01/05 06:05:27;;;;;;;0.20;0.20;;;3.60;99.90;;;3.31;100.00;99220.28;4922004;29;20210;-79
2022/01/05 06:07:58;;;;;;;0.20;0.20;;;3.50;99.90;;;3.34;100.00;99222.97;4916278;28;20206;-80
2022/01/05 06:10:26;;;;;;;0.17;0.17;;;3.50;99.90;;;3.29;100.00;99198.47;4922521;28;20213;-79
2022/01/05 06:12:54;;;;;;;0.20;0.20;;;3.40;99.90;;;3.26;100.00;99208.88;4945927;28;20248;-80
2022/01/05 06:15:36;;;;;;;0.20;0.20;;;3.50;99.90;;;3.26;100.00;99210.59;4970937;23;20236;-83
2022/01/05 06:18:45;;;;;;;0.20;0.20;;;3.40;99.90;;;3.31;100.00;99206.34;4984622;28;20200;-85
2022/01/05 06:21:37;;;;;;;0.20;0.20;;;3.80;99.90;;;3.21;100.00;99181.78;4989805;28;20205;-85
2022/01/05 06:24:06;;;;;;;0.20;0.20;;;3.60;99.90;;;3.24;100.00;99196.63;4999121;28;20228;-83
2022/01/05 06:26:34;;;;;;;0.13;0.13;;;3.50;99.90;;;3.25;100.00;99207.13;4975830;28;20682;-83
2022/01/05 06:29:02;;;;;;;0.20;0.20;;;3.40;99.90;;;3.20;100.00;99200.94;4980155;28;20209;-82
2022/01/05 06:31:33;;;;;;;0.20;0.20;;;3.40;99.90;;;3.18;100.00;99205.25;4990097;28;20210;-83
2022/01/05 06:34:03;;;;;;;0.17;0.17;;;3.40;99.90;;;3.08;100.00;99203.31;4983001;28;20235;-82
2022/01/05 06:36:33;;;;;;;0.20;0.20;;;3.40;99.90;;;3.06;100.00;99241.56;4989063;28;20208;-83
2022/01/05 06:39:04;;;;;;;0.20;0.20;;;3.40;99.90;;;3.05;100.00;99239.81;4959558;28;20201;-82
2022/01/05 06:41:33;;;;;;;0.20;0.20;;;3.50;99.90;;;3.05;100.00;99235.47;4957361;28;20205;-82
2022/01/05 06:44:04;;;;;;;0.20;0.20;;;3.30;99.90;;;2.92;100.00;99238.69;4965401;28;20224;-82
2022/01/05 06:46:32;;;;;;;0.20;0.20;;;3.30;99.90;;;2.89;100.00;99246.47;4955927;28;20201;-83
2022/01/05 06:49:00;;;;;;;0.20;0.20;;;3.20;99.90;;;2.83;100.00;99257.66;4990793;28;20217;-82
2022/01/05 06:51:28;;;;;;;0.20;0.20;;;3.10;99.90;;;2.90;100.00;99229.94;4977067;28;20197;-82
2022/01/05 06:53:57;;;;;;;0.20;0.20;;;3.10;99.90;;;2.86;100.00;99212.44;4963788;28;20240;-81
2022/01/05 06:56:25;;;;;;;0.15;0.15;;;3.50;99.90;;;2.85;100.00;99189.81;4972714;28;20210;-81
2022/01/05 06:58:52;;;;;;;0.20;0.20;;;3.10;99.90;;;2.78;100.00;99193.16;4972601;28;20228;-82
2022/01/05 07:01:20;;;;;;;0.20;0.20;;;3.00;99.90;;;2.69;100.00;99186.00;4957091;28;20205;-82
2022/01/05 07:03:48;;;;;;;0.30;0.30;;;3.60;99.90;;;2.60;100.00;99203.19;4958141;28;20225;-82
2022/01/05 07:06:16;;;;;;;0.20;0.20;;;2.90;99.90;;;2.50;100.00;99218.63;4957415;28;20216;-82
2022/01/05 07:08:44;;;;;;;0.30;0.30;;;3.50;99.90;;;2.37;100.00;99221.81;4988834;28;20222;-82
2022/01/05 07:11:12;;;;;;;0.20;0.20;;;2.80;99.90;;;2.39;100.00;99259.28;4957431;28;20371;-82
2022/01/05 07:13:40;;;;;;;0.20;0.20;;;2.70;99.90;;;2.32;100.00;99269.53;4956677;28;20232;-82
2022/01/05 07:16:08;;;;;;;0.20;0.20;;;2.80;99.90;;;2.34;100.00;99258.28;4981180;28;20205;-82
2022/01/05 07:18:36;;;;;;;0.20;0.20;;;3.10;99.90;;;2.34;100.00;99263.50;4976211;28;20205;-81
2022/01/05 07:21:04;;;;;;;0.20;0.20;;;3.40;99.90;;;2.38;100.00;99267.06;4976074;28;20197;-82
2022/01/05 07:23:32;;;;;;;0.20;0.20;;;2.60;99.90;;;2.31;100.00;99247.78;4976819;28;20216;-82
2022/01/05 07:26:00;;;;;;;0.20;0.20;;;3.30;99.90;;;2.17;100.00;99254.41;4975969;28;20208;-82
2022/01/05 07:28:28;;;;;;;0.20;0.20;;;3.20;99.90;;;2.19;100.00;99258.81;4991854;28;20217;-83
2022/01/05 07:30:55;;;;;;;0.20;0.20;;;2.90;99.90;;;2.12;100.00;99253.41;4960161;28;20215;-83
2022/01/05 07:33:24;;;;;;;0.20;0.20;;;;;;;2.04;100.00;99249.75;4976186;28;20226;-82
2022/01/05 07:35:53;;;;;;;0.43;0.40;;;2.30;99.90;;;1.99;100.00;99265.28;4993103;28;20228;-83
2022/01/05 07:38:21;;;;;;;0.20;0.20;;;2.30;99.90;;;2.01;100.00;99289.66;4962181;28;20215;-82
2022/01/05 07:40:49;;;;;;;0.20;0.20;;;2.30;99.90;;;2.03;100.00;99279.28;4978305;28;20216;-81
2022/01/05 07:43:18;;;;;;;0.20;0.20;;;2.30;99.90;;;2.02;100.00;99261.88;4993406;28;20197;-83
2022/01/05 07:45:46;;;;;;;0.20;0.20;;;3.60;99.90;;;2.03;100.00;99255.81;4993269;28;20224;-82
2022/01/05 07:48:15;;;;;;;0.20;0.20;;;2.20;99.90;;;2.02;100.00;99241.00;4960505;28;20200;-82
2022/01/05 07:50:43;;;;;;;0.20;0.20;;;2.80;99.90;;;2.02;100.00;99221.03;4960690;28;20215;-82
2022/01/05 07:53:12;;;;;;;0.20;0.20;;;;;;;1.98;100.00;99232.22;4960748;28;20236;-81
2022/01/05 07:55:39;;;;;;;0.20;0.20;;;2.20;99.90;;;1.88;100.00;99230.25;4960109;28;20224;-82
2022/01/05 07:58:07;;;;;;;0.20;0.20;;;2.40;99.90;;;1.85;100.00;99238.00;5007222;28;20379;-83
2022/01/05 08:00:36;;;;;;;0.20;0.20;;;2.20;99.90;;;1.88;100.00;99262.41;4960104;28;20693;-82
2022/01/05 08:03:04;;;;;;;0.20;0.20;;;2.10;99.90;;;1.88;100.00;99267.63;4971818;28;20201;-83
2022/01/05 08:05:33;;;;;;;0.20;0.20;;;3.20;99.90;;;1.80;100.00;99278.69;4926016;28;20221;-82
2022/01/05 08:08:01;;;;;;;0.20;0.20;;;2.00;99.90;;;1.86;100.00;99299.72;4941160;28;20206;-82
2022/01/05 08:10:29;;;;;;;0.20;0.20;;;2.80;99.90;;;1.89;100.00;99290.25;4941206;28;20201;-83
2022/01/05 08:12:57;;;;;;;0.28;0.28;;;2.60;99.90;;;1.91;100.00;99293.78;4958460;28;20220;-82
2022/01/05 08:15:25;;;;;;;0.20;0.20;;;2.30;99.90;;;1.90;100.00;99278.09;4972327;28;20248;-82
2022/01/05 08:17:53;;;;;;;0.20;0.20;;;2.80;99.90;;;1.85;100.00;99288.41;4963637;28;20580;-82
2022/01/05 08:20:21;;;;;;;0.20;0.20;;;2.10;99.90;;;1.97;100.00;99306.06;4956107;28;20220;-82
2022/01/05 08:22:49;;;;;;;0.22;0.22;;;2.50;99.90;;;1.92;100.00;99298.13;4969186;28;20212;-82
2022/01/05 08:25:20;;;;;;;0.20;0.20;;;2.00;99.90;;;1.88;100.00;99308.44;4961196;28;20233;-81
2022/01/05 08:27:48;;;;;;;0.20;0.20;;;2.10;99.90;;;1.93;100.00;99322.47;4974084;28;20215;-82
2022/01/05 08:30:22;;;;;;;0.30;0.30;;;2.40;99.90;;;2.00;100.00;99331.34;4960427;28;20211;-82
2022/01/05 08:32:52;;;;;;;0.20;0.20;;;2.50;99.90;;;2.01;100.00;99335.72;4957995;28;20216;-82
2022/01/05 08:35:23;;;;;;;0.20;0.20;;;2.10;99.90;;;2.01;100.00;99347.03;4949998;28;20216;-82
2022/01/05 08:37:52;;;;;;;0.20;0.20;;;3.30;99.90;;;1.96;100.00;99345.16;4956716;28;20221;-82
2022/01/05 08:40:23;;;;;;;0.20;0.20;;;2.60;99.90;;;2.05;100.00;99368.84;4957653;28;20204;-81
2022/01/05 08:42:53;;;;;;;0.20;0.20;;;2.30;99.90;;;2.07;100.00;99383.69;4973683;28;20209;-82
2022/01/05 08:45:22;;;;;;;0.20;0.20;;;2.30;99.90;;;2.08;100.00;99392.38;4982749;28;20220;-82
2022/01/05 08:47:53;;;;;;;0.20;0.20;;;2.20;99.90;;;2.13;100.00;99402.09;4986976;28;20207;-84
2022/01/05 08:50:24;;;;;;;0.30;0.30;;;2.40;99.90;;;2.15;100.00;99396.91;4990484;28;20227;-82
2022/01/05 08:52:54;;;;;;;0.20;0.20;;;2.40;99.90;;;2.23;100.00;99393.66;4989253;28;20580;-81
2022/01/05 08:55:27;;;;;;;0.20;0.20;;;2.50;99.90;;;2.32;100.00;99413.00;4973451;28;20228;-82
2022/01/05 08:57:56;;;;;;;0.20;0.20;;;2.40;99.90;;;2.26;100.00;99385.03;4952468;28;20207;-82
2022/01/05 09:00:24;;;;;;;0.20;0.20;;;2.40;99.90;;;2.31;100.00;99391.25;4975708;28;20212;-82
2022/01/05 09:02:52;;;;;;;0.20;0.20;;;2.40;99.90;;;2.34;100.00;99391.31;4975862;28;20553;-82
2022/01/05 09:05:23;;;;;;;0.20;0.20;;;2.90;99.90;;;2.37;100.00;99386.19;4976117;28;20221;-82
2022/01/05 09:07:51;;;;;;;0.20;0.20;;;2.50;99.90;;;2.37;100.00;99380.97;4975472;28;20211;-82
2022/01/05 09:10:19;;;;;;;0.20;0.20;;;2.50;99.90;;;2.35;100.00;99382.66;4991922;28;20220;-81
2022/01/05 09:12:47;;;;;;;0.20;0.20;;;2.70;99.90;;;2.38;100.00;99376.63;4979883;28;20212;-81
2022/01/05 09:15:15;;;;;;;0.20;0.20;;;2.50;99.90;;;2.42;100.00;99396.75;4978883;28;20230;-82
2022/01/05 09:17:43;;;;;;;0.20;0.20;;;2.80;99.90;;;2.40;100.00;99390.59;4962723;28;20211;-82
2022/01/05 09:20:12;;;;;;;0.20;0.20;;;2.70;99.90;;;2.47;100.00;99403.84;4958322;28;20193;-81
2022/01/05 09:22:40;;;;;;;0.20;0.20;;;2.60;99.90;;;2.56;100.00;99416.22;4961162;28;20208;-82
2022/01/05 09:25:11;;;;;;;0.20;0.20;;;2.60;99.90;;;2.59;100.00;99405.84;4957971;28;20236;-82
2022/01/05 09:27:40;;;;;;;0.30;0.30;;;2.70;99.90;;;2.57;100.00;99379.72;4957883;28;20219;-82
2022/01/05 09:30:10;;;;;;;0.30;0.30;;;2.70;99.90;;;2.66;100.00;99381.69;4967342;28;20224;-82
2022/01/05 09:32:39;;;;;;;0.20;0.20;;;2.70;99.90;;;2.62;100.00;99392.91;4971437;28;20216;-82
2022/01/05 09:35:11;;;;;;;0.40;0.40;;;2.70;99.90;;;2.64;100.00;99378.16;4971630;28;20236;-81
2022/01/05 09:37:51;;;;;;;0.20;0.20;;;2.80;99.90;;;2.63;100.00;99365.09;4993190;28;20205;-82
2022/01/05 09:43:08;;;;;;;0.40;0.40;;;2.80;99.90;;;2.75;100.00;99374.09;4992895;28;20204;-82
2022/01/05 09:45:42;;;;;;;0.40;0.40;;;3.30;99.90;;;2.75;100.00;99376.69;4984322;28;20217;-81
2022/01/05 09:48:39;;;;;;;0.20;0.20;;;2.90;99.90;;;2.85;100.00;99403.91;4961419;28;20211;-82
2022/01/05 09:51:17;;;;;;;0.30;0.30;;;2.90;99.90;;;2.83;100.00;99393.41;4987567;28;20212;-82
2022/01/05 09:53:52;;;;;;;0.20;0.20;;;2.90;99.90;;;2.84;100.00;99410.84;4993233;28;20220;-81
2022/01/05 09:57:05;;;;;;;0.20;0.20;;;3.00;99.90;;;2.86;100.00;99416.09;4989572;28;20293;-80
2022/01/05 10:00:00;;;;;;;0.20;0.20;;;2.90;99.90;;;2.86;100.00;99403.94;4956917;28;20576;-81
2022/01/05 10:02:48;;;;;;;0.30;0.30;;;3.00;99.90;;;2.89;100.00;99397.91;4989860;28;20217;-81
2022/01/05 10:05:24;;;;;;;0.20;0.20;;;3.00;99.90;;;2.92;100.00;99421.47;4973125;28;20232;-81
2022/01/05 10:08:07;;;;;;;0.22;0.22;;;3.00;99.90;;;2.91;100.00;99404.03;4979165;28;20205;-81
2022/01/05 10:10:35;;;;;;;1.42;1.42;;;3.00;99.90;;;2.94;100.00;99387.56;4977287;28;20204;-81
2022/01/05 10:13:04;;;;;;;0.30;0.30;;;3.10;99.90;;;2.99;100.00;99391.16;4973343;28;20205;-81
2022/01/05 10:15:34;;;;;;;0.20;0.20;;;3.00;99.90;;;2.96;100.00;99388.47;4968389;28;20258;-81
2022/01/05 10:18:18;;;;;;;0.20;0.20;;;3.10;99.90;;;3.01;100.00;99381.63;4957382;28;20229;-81
2022/01/05 10:21:02;;;;;;;0.32;0.32;;;3.10;99.90;;;3.03;100.00;99375.59;4926483;28;20205;-80
2022/01/05 10:23:45;;;;;;;0.50;0.45;;;3.20;99.90;;;3.13;100.00;99394.94;4963684;28;20206;-81
2022/01/05 10:26:33;;;;;;;0.30;0.30;;;3.20;99.90;;;3.10;100.00;99390.53;4958635;28;20216;-80
2022/01/05 10:29:14;;;;;;;0.30;0.30;;;3.20;99.90;;;3.16;100.00;99422.03;4975808;28;20213;-81
2022/01/05 10:31:43;;;;;;;0.30;0.30;;;3.20;99.90;;;3.15;100.00;99393.25;4972010;28;20197;-81
2022/01/05 10:34:22;;;;;;;0.20;0.20;;;3.30;99.90;;;3.15;100.00;99401.09;4955057;28;20229;-81
2022/01/05 10:36:53;;;;;;;0.20;0.20;;;3.30;99.90;;;3.33;100.00;99439.81;4955231;28;20197;-83
2022/01/05 10:39:32;;;;;;;0.20;0.20;;;3.30;99.90;;;3.33;100.00;99422.38;4987088;28;20223;-82
2022/01/05 10:42:10;;;;;;;0.30;0.30;;;3.40;99.90;;;3.23;100.00;99404.75;5003695;28;20212;-81
2022/01/05 10:44:41;;;;;;;0.30;0.30;;;3.30;99.90;;;3.24;100.00;99367.31;4988976;28;20240;-80
2022/01/05 10:47:09;;;;;;;0.30;0.30;;;3.40;99.90;;;3.24;100.00;99369.06;4987891;28;20205;-81
2022/01/05 10:49:42;;;;;;;0.30;0.30;;;3.40;99.90;;;3.28;100.00;99376.13;4962095;28;20221;-82
2022/01/05 10:52:34;;;;;;;0.20;0.20;;;3.40;99.90;;;3.34;100.00;99410.22;4975634;28;20219;-81